Time;durP1;ratioP1;P1;durP2;ratioP2;P2;SDS_P1;SDS_P2;PMS_P1;PMS_P2;Temp;Humidity;BMP_temperature;BMP_pressure;BME280_temperature;BME280_humidity;BME280_pressure;Samples;Min_cycle;Max_cycle;Signal;HPM_P1;HPM_P2
2023/08/05 00:00:58;;;;;;;4.53;3.10;;;19.80;80.60;;;22.56;51.22;101507.31;5035117;28;20642;-62
2023/08/05 00:03:25;;;;;;;4.83;2.90;;;19.70;80.80;;;22.54;51.01;101498.69;5034936;28;20194;-62
2023/08/05 00:05:53;;;;;;;5.83;2.80;;;19.60;80.80;;;22.51;51.17;101509.88;5035492;28;20185;-61
2023/08/05 00:08:20;;;;;;;3.70;2.87;;;19.60;81.10;;;22.49;51.28;101506.63;5035815;28;20281;-60
2023/08/05 00:10:47;;;;;;;4.20;3.00;;;19.60;81.40;;;22.47;51.51;101502.53;5034989;28;20207;-61
2023/08/05 00:13:15;;;;;;;5.63;2.90;;;19.50;81.40;;;22.44;51.63;101509.19;5035133;28;20210;-62
2023/08/05 00:15:43;;;;;;;5.87;2.77;;;19.50;81.50;;;22.41;51.59;101504.31;5034903;28;20195;-62
2023/08/05 00:18:10;;;;;;;5.17;2.67;;;19.50;81.70;;;22.38;51.95;101499.41;5034606;28;20191;-62
2023/08/05 00:20:37;;;;;;;4.83;2.77;;;19.50;81.80;;;22.38;51.97;101493.22;5034652;28;20222;-62
2023/08/05 00:23:04;;;;;;;6.47;3.10;;;19.40;82.00;;;22.37;52.03;101489.69;5034376;28;20656;-61
2023/08/05 00:25:31;;;;;;;7.00;3.17;;;19.50;82.10;;;22.38;52.06;101490.53;5034894;28;20222;-62
2023/08/05 00:27:58;;;;;;;6.67;3.27;;;19.40;82.10;;;22.37;51.84;101491.59;5034870;28;20214;-62
2023/08/05 00:30:26;;;;;;;5.03;2.90;;;19.40;82.10;;;22.35;51.68;101491.81;5034622;28;20278;-62
2023/08/05 00:32:53;;;;;;;5.57;3.17;;;19.40;82.20;;;22.35;52.06;101494.47;5034924;28;20193;-62
2023/08/05 00:35:22;;;;;;;5.00;2.90;;;19.40;82.40;;;22.36;51.93;101496.13;5034634;28;20380;-62
2023/08/05 00:37:49;;;;;;;3.87;2.73;;;19.40;82.20;;;22.36;52.23;101495.31;5034561;28;20195;-62
2023/08/05 00:40:16;;;;;;;7.60;3.33;;;19.40;82.30;;;22.35;51.83;101486.44;5033915;28;20575;-62
2023/08/05 00:42:43;;;;;;;8.93;3.67;;;19.40;82.10;;;22.33;52.06;101479.66;5034534;28;20230;-62
2023/08/05 00:45:10;;;;;;;7.43;3.93;;;19.40;82.20;;;22.27;52.04;101486.81;5034384;28;20202;-62
2023/08/05 00:47:40;;;;;;;4.13;2.90;;;19.40;82.30;;;22.24;52.45;101481.91;5034853;28;20669;-61
2023/08/05 00:50:10;;;;;;;4.87;2.93;;;19.30;82.30;;;22.21;52.18;101471.63;5034255;28;20631;-62
2023/08/05 00:52:40;;;;;;;6.40;2.87;;;19.30;82.20;;;22.16;52.07;101468.81;5034397;28;20195;-62
2023/08/05 00:55:07;;;;;;;8.17;2.80;;;19.30;82.30;;;22.13;52.77;101474.66;5034422;28;20190;-61
2023/08/05 00:57:35;;;;;;;7.33;3.00;;;19.20;82.60;;;22.11;52.36;101476.75;5034619;28;20647;-62
2023/08/05 01:00:03;;;;;;;5.77;3.40;;;19.20;82.70;;;22.11;52.86;101487.47;5034150;28;20210;-62
2023/08/05 01:02:31;;;;;;;4.80;2.90;;;19.20;83.00;;;22.12;52.92;101489.13;5034119;28;20225;-62
2023/08/05 01:04:59;;;;;;;5.60;2.97;;;19.20;83.00;;;22.11;52.68;101482.09;5034090;28;20547;-62
2023/08/05 01:07:27;;;;;;;4.40;3.17;;;19.20;82.80;;;22.05;52.73;101478.50;5033977;28;20222;-60
2023/08/05 01:09:55;;;;;;;5.77;3.00;;;19.20;82.60;;;22.03;52.68;101479.78;5033746;28;20349;-62
2023/08/05 01:12:22;;;;;;;5.47;3.13;;;19.10;82.70;;;22.03;52.62;101485.16;5033525;28;20215;-62
2023/08/05 01:14:49;;;;;;;5.93;3.57;;;19.10;82.60;;;22.00;52.64;101480.25;5034062;28;20285;-61
2023/08/05 01:17:16;;;;;;;5.83;2.93;;;19.10;82.70;;;21.98;52.80;101480.47;5034072;28;20187;-60
2023/08/05 01:19:45;;;;;;;5.03;2.73;;;19.10;83.00;;;21.99;52.67;101478.59;5033871;28;20236;-60
2023/08/05 01:22:26;;;;;;;6.27;2.80;;;19.10;83.00;;;21.96;52.73;101482.59;5034042;28;20698;-62
2023/08/05 01:25:03;;;;;;;5.80;3.07;;;19.10;82.90;;;21.95;52.56;101483.63;5033800;28;20275;-62
2023/08/05 01:27:34;;;;;;;3.90;2.60;;;19.00;82.60;;;21.93;52.37;101490.25;5033814;28;20214;-61
2023/08/05 01:30:01;;;;;;;5.90;3.07;;;19.00;82.60;;;21.89;52.80;101487.22;5033524;28;20262;-60
2023/08/05 01:32:34;;;;;;;3.23;2.63;;;19.00;82.60;;;21.87;52.59;101486.63;5033767;28;20232;-61
2023/08/05 01:35:02;;;;;;;4.27;2.87;;;19.00;82.90;;;21.84;52.86;101480.88;5033902;28;20297;-60
2023/08/05 01:37:29;;;;;;;3.27;2.50;;;19.00;82.90;;;21.81;52.84;101481.34;5033739;28;20186;-63
2023/08/05 01:39:56;;;;;;;6.93;3.80;;;18.90;82.80;;;21.78;52.83;101487.16;5033715;28;20214;-61
2023/08/05 01:42:23;;;;;;;2.73;2.53;;;18.90;83.00;;;21.73;53.01;101495.09;5034441;28;20528;-62
2023/08/05 01:44:51;;;;;;;4.17;3.20;;;18.90;83.90;;;21.72;53.44;101498.81;5033658;28;20199;-62
2023/08/05 01:47:18;;;;;;;7.47;3.07;;;18.90;83.30;;;21.72;53.38;101494.25;5033552;28;20293;-60
2023/08/05 01:49:45;;;;;;;5.13;3.47;;;18.90;83.80;;;21.76;53.44;101494.59;5033544;28;20290;-62
2023/08/05 01:52:12;;;;;;;5.07;3.50;;;18.90;83.80;;;21.79;53.34;101488.81;5033428;28;20198;-62
2023/08/05 01:54:39;;;;;;;4.33;3.00;;;18.90;83.40;;;21.78;53.25;101497.88;5033444;28;20194;-62
2023/08/05 01:57:06;;;;;;;4.57;3.47;;;18.90;83.30;;;21.76;53.13;101484.72;5033177;28;20754;-61
2023/08/05 01:59:33;;;;;;;3.27;2.47;;;19.00;83.20;;;21.73;53.25;101479.81;5033042;28;20285;-60
2023/08/05 02:02:02;;;;;;;3.60;3.30;;;18.90;83.40;;;21.76;53.00;101489.25;5033380;28;20705;-60
2023/08/05 02:04:29;;;;;;;10.83;3.60;;;19.00;83.40;;;21.77;53.46;101485.53;5033467;28;20227;-59
2023/08/05 02:06:56;;;;;;;4.50;3.07;;;19.00;83.40;;;21.78;53.27;101484.47;5033842;28;20217;-61
2023/08/05 02:09:23;;;;;;;4.20;2.77;;;19.00;83.30;;;21.79;53.13;101494.16;5033298;28;20218;-61
2023/08/05 02:11:50;;;;;;;4.67;2.93;;;19.00;83.30;;;21.77;53.49;101483.69;5033287;28;20195;-61
2023/08/05 02:14:17;;;;;;;5.53;3.07;;;18.90;83.20;;;21.78;53.16;101487.16;5033205;28;20226;-62
2023/08/05 02:16:44;;;;;;;6.90;3.47;;;19.00;83.60;;;21.80;53.41;101490.44;5033080;28;20191;-60
2023/08/05 02:19:13;;;;;;;5.13;3.77;;;19.00;83.30;;;21.81;53.08;101486.69;5032839;28;20209;-63
2023/08/05 02:21:40;;;;;;;6.00;3.90;;;19.00;83.00;;;21.79;52.67;101488.81;5032658;28;20191;-62
2023/08/05 02:24:11;;;;;;;6.93;3.93;;;19.00;82.90;;;21.73;52.74;101482.47;5033307;28;20541;-62
2023/08/05 02:26:38;;;;;;;5.97;3.43;;;18.90;82.80;;;21.66;53.00;101487.13;5036983;28;20218;-63
2023/08/05 02:29:05;;;;;;;6.97;3.57;;;18.90;82.70;;;21.59;53.05;101489.91;5036786;28;20319;-63
2023/08/05 02:31:32;;;;;;;7.13;3.93;;;18.80;82.60;;;21.51;52.97;101487.53;5036904;28;20290;-62
2023/08/05 02:33:59;;;;;;;7.03;3.03;;;18.80;82.70;;;21.42;53.22;101483.56;5037126;28;20190;-62
2023/08/05 02:36:28;;;;;;;5.80;3.67;;;18.70;82.50;;;21.33;53.06;101494.81;5036899;28;20277;-62
2023/08/05 02:38:55;;;;;;;5.80;3.30;;;18.60;82.50;;;21.25;52.82;101498.63;5037051;28;20557;-62
2023/08/05 02:41:22;;;;;;;5.40;3.43;;;18.50;82.60;;;21.19;53.14;101494.16;5035898;28;20214;-63
2023/08/05 02:43:49;;;;;;;6.37;3.70;;;18.40;82.70;;;21.15;53.44;101498.34;5037047;28;20278;-62
2023/08/05 02:46:16;;;;;;;4.23;3.70;;;18.40;83.00;;;21.09;53.29;101501.91;5037575;28;20194;-65
2023/08/05 02:48:43;;;;;;;5.97;3.73;;;18.30;83.00;;;21.03;53.17;101499.28;5036829;28;20214;-62
2023/08/05 02:51:10;;;;;;;5.93;3.57;;;18.30;83.00;;;20.95;53.52;101492.38;5036552;28;20241;-63
2023/08/05 02:53:39;;;;;;;5.87;3.43;;;18.20;83.30;;;20.93;54.01;101497.13;5037095;28;20198;-62
2023/08/05 02:56:06;;;;;;;4.23;3.43;;;18.20;83.70;;;20.92;54.18;101498.16;5036674;28;20245;-62
2023/08/05 02:58:33;;;;;;;6.07;3.80;;;18.10;83.80;;;20.91;53.46;101499.22;5036723;28;20679;-63
2023/08/05 03:01:07;;;;;;;7.70;3.60;;;18.10;83.70;;;20.86;54.07;101504.44;5036766;28;20206;-63
2023/08/05 03:03:35;;;;;;;7.77;3.20;;;18.10;84.20;;;20.87;54.50;101500.72;5036561;28;20189;-62
2023/08/05 03:06:02;;;;;;;7.63;3.20;;;18.10;84.80;;;20.90;54.41;101500.25;5036382;28;20281;-64
2023/08/05 03:08:29;;;;;;;6.67;3.77;;;18.10;85.10;;;20.95;54.35;101503.09;5036039;28;20679;-62
2023/08/05 03:10:58;;;;;;;4.93;3.90;;;18.10;85.00;;;20.99;54.25;101498.91;5036172;28;20238;-63
2023/08/05 03:13:26;;;;;;;6.27;3.53;;;18.20;84.60;;;20.99;53.84;101498.13;5036930;28;20273;-63
2023/08/05 03:15:54;;;;;;;6.23;3.90;;;18.20;84.00;;;20.94;53.95;101501.47;5036150;28;20218;-63
2023/08/05 03:18:21;;;;;;;4.33;3.13;;;18.10;83.80;;;20.88;53.52;101497.00;5036284;28;20186;-62
2023/08/05 03:20:48;;;;;;;7.00;3.57;;;18.10;83.80;;;20.82;54.11;101498.69;5036027;28;20596;-63
2023/08/05 03:23:15;;;;;;;6.37;3.50;;;18.00;83.70;;;20.76;54.09;101488.88;5036210;28;20225;-60
2023/08/05 03:25:42;;;;;;;4.57;3.40;;;18.00;83.90;;;20.74;54.81;101496.31;5036182;28;20225;-62
2023/08/05 03:28:11;;;;;;;6.73;3.83;;;17.90;84.60;;;20.77;54.37;101485.19;5036034;28;20220;-63
2023/08/05 03:30:38;;;;;;;8.47;4.50;;;18.00;84.80;;;20.78;54.22;101483.31;5036106;28;20241;-63
2023/08/05 03:33:05;;;;;;;6.90;4.13;;;17.90;84.30;;;20.73;54.57;101478.63;5036096;28;20699;-63
2023/08/05 03:35:32;;;;;;;4.40;3.43;;;17.90;85.10;;;20.71;54.04;101479.88;5035712;28;20190;-63
2023/08/05 03:37:59;;;;;;;7.27;4.13;;;17.90;84.60;;;20.71;54.66;101474.53;5035433;28;20693;-61
2023/08/05 03:40:26;;;;;;;4.90;4.10;;;17.90;85.00;;;20.69;54.24;101471.25;5035596;28;20754;-62
2023/08/05 03:42:53;;;;;;;7.23;4.30;;;17.80;84.80;;;20.66;54.37;101464.50;5035580;28;20245;-61
2023/08/05 03:45:22;;;;;;;6.10;3.83;;;17.80;84.70;;;20.62;54.50;101449.94;5035735;28;20222;-63
2023/08/05 03:47:51;;;;;;;7.93;4.00;;;17.80;84.70;;;20.57;54.19;101451.63;5035657;28;20626;-63
2023/08/05 03:50:20;;;;;;;5.20;4.20;;;17.70;84.80;;;20.52;54.54;101454.16;5035265;28;20214;-63
2023/08/05 03:52:48;;;;;;;6.20;3.97;;;17.70;85.00;;;20.49;54.72;101454.63;5035642;28;20237;-63
2023/08/05 03:55:15;;;;;;;6.37;3.77;;;17.60;84.90;;;20.46;54.70;101444.38;5035884;28;20194;-62
2023/08/05 03:57:42;;;;;;;4.53;3.40;;;17.60;85.00;;;20.41;54.67;101442.34;5035716;28;20265;-63
2023/08/05 04:00:11;;;;;;;4.13;3.27;;;17.60;85.20;;;20.42;54.41;101443.19;5035613;28;20261;-62
2023/08/05 04:02:41;;;;;;;11.13;3.77;;;17.50;85.10;;;20.42;54.98;101443.19;5035640;28;20222;-62
2023/08/05 04:05:09;;;;;;;5.27;3.20;;;17.50;85.00;;;20.42;54.53;101432.47;5035825;28;20205;-63
2023/08/05 04:07:36;;;;;;;6.17;3.60;;;17.50;84.90;;;20.43;54.93;101434.09;5035220;28;20210;-63
2023/08/05 04:10:06;;;;;;;5.10;3.13;;;17.50;84.90;;;20.45;54.82;101434.69;5035153;28;20218;-63
2023/08/05 04:12:36;;;;;;;4.90;3.27;;;17.50;85.00;;;20.45;54.92;101429.34;5035058;28;20671;-61
2023/08/05 04:15:06;;;;;;;4.27;3.33;;;17.50;86.00;;;20.48;54.59;101428.91;5034969;28;20199;-62
2023/08/05 04:17:33;;;;;;;4.07;3.23;;;17.60;85.20;;;20.49;54.89;101425.19;5035438;28;20186;-63
2023/08/05 04:20:02;;;;;;;6.07;3.10;;;17.60;85.10;;;20.51;54.68;101423.94;5035178;28;20218;-63
2023/08/05 04:22:30;;;;;;;6.43;3.70;;;17.60;85.70;;;20.57;54.72;101425.72;5035305;28;20186;-62
2023/08/05 04:24:57;;;;;;;6.23;4.43;;;17.70;85.60;;;20.61;54.91;101421.53;5034795;28;20268;-63
2023/08/05 04:27:24;;;;;;;13.83;10.43;;;17.70;85.50;;;20.68;55.17;101422.28;5034605;28;20298;-63
2023/08/05 04:29:51;;;;;;;10.03;8.03;;;17.80;85.70;;;20.76;54.65;101418.50;5034695;28;20237;-62
2023/08/05 04:32:18;;;;;;;6.93;4.87;;;17.90;85.30;;;20.82;54.69;101418.41;5034758;28;20199;-62
2023/08/05 04:34:46;;;;;;;8.67;4.07;;;17.90;84.70;;;20.86;54.43;101408.06;5034924;28;20654;-62
2023/08/05 04:37:20;;;;;;;4.80;3.53;;;18.00;84.40;;;20.85;54.14;101411.78;5034636;28;20197;-62
2023/08/05 04:39:48;;;;;;;5.83;4.20;;;18.00;84.00;;;20.85;54.20;101409.09;5034661;28;20353;-63
2023/08/05 04:42:16;;;;;;;5.60;4.10;;;18.00;84.10;;;20.84;54.26;101415.53;5049802;28;20603;-63
2023/08/05 04:44:45;;;;;;;7.23;3.90;;;18.00;84.10;;;20.85;54.21;101411.78;5034537;28;20213;-61
2023/08/05 04:47:12;;;;;;;7.57;3.80;;;18.00;84.20;;;20.86;53.98;101408.91;5033881;28;20194;-62
2023/08/05 04:49:43;;;;;;;5.37;3.50;;;18.00;84.30;;;20.89;53.83;101416.47;5033294;28;20317;-61
2023/08/05 04:52:12;;;;;;;6.83;3.57;;;18.00;84.10;;;20.94;53.92;101410.44;5034535;28;20257;-63
2023/08/05 04:54:46;;;;;;;5.03;3.07;;;18.10;83.80;;;20.94;53.98;101411.25;5034469;28;20190;-62
2023/08/05 04:57:13;;;;;;;6.20;3.40;;;18.10;84.10;;;21.00;53.68;101408.72;5034343;28;20731;-62
2023/08/05 04:59:40;;;;;;;5.63;3.00;;;18.10;83.90;;;21.03;53.19;101414.44;5034364;28;20252;-63
2023/08/05 05:02:07;;;;;;;8.87;3.60;;;18.10;83.50;;;21.04;53.14;101410.72;5034432;28;20228;-63
2023/08/05 05:04:35;;;;;;;5.17;3.27;;;18.10;83.20;;;21.06;53.33;101416.69;5034373;28;20202;-62
2023/08/05 05:07:02;;;;;;;7.27;3.13;;;18.10;83.10;;;21.05;52.76;101415.06;5034041;28;20535;-61
2023/08/05 05:09:29;;;;;;;7.10;3.20;;;18.10;83.00;;;21.04;52.55;101416.06;5033752;28;20682;-62
2023/08/05 05:12:00;;;;;;;5.60;3.37;;;18.10;82.90;;;21.03;52.99;101408.28;5034114;28;20274;-61
2023/08/05 05:14:27;;;;;;;5.60;3.10;;;18.10;82.80;;;21.03;53.28;101409.09;5033826;28;20274;-62
2023/08/05 05:16:54;;;;;;;4.80;2.70;;;18.10;82.80;;;21.03;53.01;101409.09;5033068;28;20297;-62
2023/08/05 05:19:21;;;;;;;7.87;3.37;;;18.10;83.00;;;20.98;53.13;101416.97;5033931;28;20293;-62
2023/08/05 05:21:48;;;;;;;7.00;3.30;;;18.10;82.60;;;20.91;52.97;101411.72;5034072;28;20312;-61
2023/08/05 05:24:15;;;;;;;4.03;3.13;;;18.10;82.40;;;20.90;52.69;101414.59;5033667;28;20308;-62
2023/08/05 05:26:42;;;;;;;6.03;3.60;;;18.10;82.40;;;20.89;53.13;101413.78;5033840;28;20205;-63
2023/08/05 05:29:10;;;;;;;7.13;3.30;;;18.10;82.70;;;20.91;53.09;101413.56;5033698;28;20268;-63
2023/08/05 05:31:37;;;;;;;5.00;2.97;;;18.10;83.00;;;20.92;53.50;101413.34;5033814;28;20298;-62
2023/08/05 05:34:04;;;;;;;4.23;3.10;;;18.10;83.10;;;20.97;53.42;101425.25;5033879;28;20306;-62
2023/08/05 05:36:31;;;;;;;7.23;3.63;;;18.20;83.30;;;20.99;53.49;101423.94;5033573;28;20667;-63
2023/08/05 05:38:58;;;;;;;5.47;3.07;;;18.20;83.10;;;20.96;52.82;101424.44;5033502;28;20233;-62
2023/08/05 05:41:25;;;;;;;10.93;3.87;;;18.20;83.40;;;20.91;53.24;101422.44;5033903;28;20273;-62
2023/08/05 05:43:52;;;;;;;4.63;3.70;;;18.20;82.70;;;20.89;53.18;101426.38;5033223;28;20750;-63
2023/08/05 05:46:21;;;;;;;4.67;3.77;;;18.20;82.70;;;20.87;53.02;101423.91;5033458;28;20616;-63
2023/08/05 05:48:48;;;;;;;6.20;3.37;;;18.20;82.80;;;20.87;53.17;101420.44;5033251;28;20206;-63
2023/08/05 05:51:15;;;;;;;6.30;3.40;;;18.20;82.80;;;20.88;53.58;101427.41;5033612;28;20296;-63
2023/08/05 05:53:42;;;;;;;4.87;3.33;;;18.20;82.80;;;20.87;53.39;101439.16;5033635;28;20214;-62
2023/08/05 05:56:09;;;;;;;4.93;3.43;;;18.10;82.60;;;20.86;53.16;101430.31;5033756;28;20195;-62
2023/08/05 05:58:36;;;;;;;4.67;2.83;;;18.20;83.00;;;20.89;53.89;101431.72;5034272;28;20221;-62
2023/08/05 06:01:04;;;;;;;5.77;3.80;;;18.20;83.30;;;21.01;53.70;101432.59;5038281;28;20733;-63
2023/08/05 06:03:33;;;;;;;5.30;3.57;;;18.20;83.20;;;21.02;52.85;101428.88;5038104;28;20193;-61
2023/08/05 06:06:01;;;;;;;6.27;2.90;;;18.30;82.70;;;21.08;52.89;101430.69;5037641;28;20206;-61
2023/08/05 06:08:28;;;;;;;7.53;3.17;;;18.30;82.90;;;21.16;53.09;101425.00;5037427;28;20203;-62
2023/08/05 06:10:56;;;;;;;4.60;2.43;;;18.30;82.50;;;21.22;52.77;101429.47;5037294;28;20282;-63
2023/08/05 06:13:23;;;;;;;6.77;3.83;;;18.40;82.30;;;21.26;52.52;101427.94;5037437;28;20214;-62
2023/08/05 06:15:53;;;;;;;6.77;2.50;;;18.40;81.90;;;21.31;52.34;101432.63;5037178;28;20625;-61
2023/08/05 06:18:21;;;;;;;5.53;3.00;;;18.50;82.10;;;21.36;52.54;101436.25;5037361;28;20667;-61
2023/08/05 06:20:50;;;;;;;5.50;2.87;;;18.50;82.10;;;21.40;52.35;101431.25;5037016;28;20218;-63
2023/08/05 06:23:17;;;;;;;5.00;2.67;;;18.60;82.20;;;21.43;52.17;101431.63;5037289;28;20279;-61
2023/08/05 06:25:45;;;;;;;5.00;3.00;;;18.60;82.10;;;21.51;52.45;101433.16;5037352;28;20273;-61
2023/08/05 06:28:13;;;;;;;6.10;2.67;;;18.70;82.20;;;21.57;52.28;101435.72;5036933;28;20206;-63
2023/08/05 06:30:42;;;;;;;4.73;2.67;;;18.70;82.30;;;21.63;52.58;101435.88;5036989;28;20237;-62
2023/08/05 06:33:10;;;;;;;4.50;2.70;;;18.80;82.20;;;21.66;52.08;101430.84;5037227;28;20197;-62
2023/08/05 06:35:37;;;;;;;8.90;2.67;;;18.80;82.10;;;21.72;52.59;101434.47;5036590;28;20328;-59
2023/08/05 06:38:06;;;;;;;5.63;2.67;;;18.90;82.20;;;21.78;52.39;101429.00;5036647;28;20191;-63
2023/08/05 06:40:33;;;;;;;4.33;2.53;;;18.90;82.10;;;21.87;52.15;101430.31;5036897;28;20301;-63
2023/08/05 06:43:00;;;;;;;5.10;2.33;;;19.00;82.20;;;21.97;51.79;101427.06;5037623;28;20194;-61
2023/08/05 06:45:27;;;;;;;7.43;3.23;;;19.00;82.40;;;22.01;51.67;101428.25;5035856;28;20195;-62
2023/08/05 06:47:54;;;;;;;3.60;2.50;;;19.10;81.60;;;22.05;51.64;101426.72;5036505;28;20221;-62
2023/08/05 06:50:21;;;;;;;4.80;2.87;;;19.10;81.50;;;22.10;51.51;101430.34;5036340;28;20215;-62
2023/08/05 06:52:48;;;;;;;7.80;4.77;;;19.20;81.60;;;22.21;51.62;101439.44;5036627;28;20218;-63
2023/08/05 06:55:18;;;;;;;7.37;3.57;;;19.30;81.70;;;22.31;51.42;101428.94;5036607;28;20205;-62
2023/08/05 06:57:48;;;;;;;5.07;2.40;;;19.40;81.50;;;22.39;50.98;101428.59;5036496;28;20206;-63
2023/08/05 07:00:16;;;;;;;4.13;2.30;;;19.50;81.00;;;22.43;50.69;101432.44;5036133;28;20206;-60
2023/08/05 07:02:43;;;;;;;4.23;2.20;;;19.50;80.30;;;22.48;50.18;101419.13;5036216;28;20190;-61
2023/08/05 07:05:11;;;;;;;4.60;2.40;;;19.60;79.80;;;22.51;49.93;101424.00;5035962;28;20678;-62
2023/08/05 07:07:38;;;;;;;3.83;2.17;;;19.60;79.60;;;22.51;49.45;101424.00;5036214;28;20195;-62
2023/08/05 07:10:08;;;;;;;5.33;2.33;;;19.70;78.30;;;22.52;49.13;101420.28;5035185;28;20297;-62
2023/08/05 07:12:36;;;;;;;4.10;2.27;;;19.70;78.20;;;22.56;48.87;101413.38;5036542;28;20194;-63
2023/08/05 07:15:04;;;;;;;3.10;2.07;;;19.70;77.70;;;22.63;49.09;101411.41;5036796;28;20200;-63
2023/08/05 07:17:32;;;;;;;3.17;2.10;;;19.70;77.80;;;22.69;49.12;101407.78;5036270;28;20191;-63
2023/08/05 07:19:59;;;;;;;3.13;1.97;;;19.80;78.30;;;22.82;49.31;101404.81;5035611;28;20210;-62
2023/08/05 07:22:26;;;;;;;3.73;2.20;;;19.80;78.60;;;22.93;48.49;101405.84;5034901;28;20190;-62
2023/08/05 07:24:54;;;;;;;5.47;2.60;;;19.90;77.50;;;23.04;48.56;101406.84;5035901;28;20218;-63
2023/08/05 07:27:22;;;;;;;2.93;1.90;;;20.00;77.60;;;23.14;47.91;101404.34;5036001;28;20195;-63
2023/08/05 07:29:50;;;;;;;6.00;2.10;;;20.10;76.40;;;23.12;45.78;101403.78;5035888;28;20226;-63
2023/08/05 07:32:17;;;;;;;2.13;1.90;;;20.20;73.10;;;23.09;46.09;101401.56;5035729;28;20199;-63
2023/08/05 07:34:46;;;;;;;3.33;2.10;;;20.20;73.50;;;23.11;46.09;101407.50;5035973;28;20652;-63
2023/08/05 07:37:14;;;;;;;2.20;1.80;;;20.30;73.10;;;23.16;45.83;101405.72;5035297;28;20225;-63
2023/08/05 07:39:46;;;;;;;2.50;1.83;;;20.40;73.00;;;23.23;45.85;101402.88;5035569;28;20210;-63
2023/08/05 07:42:15;;;;;;;2.40;1.97;;;20.40;72.70;;;23.26;45.11;101405.09;5035313;28;20815;-63
2023/08/05 07:44:42;;;;;;;4.27;2.30;;;20.40;71.70;;;23.33;45.20;101389.63;5035428;28;20273;-63
2023/08/05 07:47:11;;;;;;;3.00;2.03;;;20.50;71.70;;;23.40;44.60;101390.34;5035151;28;20596;-62
2023/08/05 07:49:40;;;;;;;3.33;1.90;;;20.50;70.90;;;23.53;44.38;101395.41;5034553;28;20293;-63
2023/08/05 07:52:07;;;;;;;3.20;1.80;;;20.60;70.90;;;23.61;43.29;101391.47;5035118;28;20197;-63
2023/08/05 07:54:35;;;;;;;4.47;1.73;;;20.70;69.00;;;23.65;42.78;101392.63;5035663;28;20194;-64
2023/08/05 07:57:02;;;;;;;2.00;1.80;;;20.70;67.90;;;24.10;41.60;101386.09;5035607;28;20225;-63
2023/08/05 07:59:30;;;;;;;2.17;1.80;;;20.80;67.50;;;24.76;41.81;101371.63;5034756;28;20257;-64
2023/08/05 08:01:57;;;;;;;2.90;1.60;;;21.10;68.50;;;25.61;41.10;101372.69;5035123;28;20678;-62
2023/08/05 08:04:26;;;;;;;3.63;2.30;;;21.50;69.40;;;26.18;39.07;101358.28;5034827;28;20248;-63
2023/08/05 08:06:53;;;;;;;5.27;2.30;;;21.90;67.60;;;26.66;38.85;101361.69;5035653;28;20194;-63
2023/08/05 08:09:20;;;;;;;4.40;2.33;;;22.30;67.20;;;27.11;38.40;101359.13;5035607;28;20276;-64
2023/08/05 08:11:48;;;;;;;4.07;2.10;;;22.70;66.50;;;27.61;36.30;101358.34;5034923;28;20563;-65
2023/08/05 08:14:16;;;;;;;2.70;1.50;;;23.10;63.10;;;28.09;34.31;101355.03;5035798;28;20190;-63
2023/08/05 08:16:43;;;;;;;1.57;1.47;;;23.40;59.70;;;28.70;34.17;101354.78;5035078;28;20647;-64
2023/08/05 08:19:11;;;;;;;3.97;1.40;;;23.90;60.20;;;29.56;33.86;101352.28;5034567;28;20214;-63
2023/08/05 08:21:39;;;;;;;1.87;1.47;;;24.40;60.40;;;30.41;31.47;101342.44;5033820;28;20290;-62
2023/08/05 08:24:08;;;;;;;2.00;1.53;;;24.90;57.80;;;31.34;30.71;101349.78;5033473;28;20293;-64
2023/08/05 08:26:35;;;;;;;3.43;1.83;;;25.60;57.10;;;32.08;29.24;101349.53;5034520;28;20190;-63
2023/08/05 08:29:02;;;;;;;2.83;2.20;;;26.20;54.20;;;32.63;27.83;101349.50;5034240;28;20232;-61
2023/08/05 08:31:31;;;;;;;3.27;1.67;;;26.80;51.80;;;32.91;27.46;101351.03;5034702;28;20281;-64
2023/08/05 08:33:58;;;;;;;2.70;1.67;;;27.30;49.90;;;32.78;26.73;101356.53;5034600;28;20248;-64
2023/08/05 08:36:26;;;;;;;3.97;1.80;;;27.60;47.40;;;33.05;26.54;101354.53;5034395;28;20195;-62
2023/08/05 08:38:54;;;;;;;1.97;1.67;;;27.80;46.80;;;33.39;25.20;101345.78;5033723;28;20264;-62
2023/08/05 08:41:23;;;;;;;3.70;1.80;;;28.00;44.40;;;33.78;25.98;101350.53;5033993;28;20191;-65
2023/08/05 08:43:51;;;;;;;1.87;1.57;;;28.30;45.70;;;33.47;25.98;101341.50;5033655;28;20186;-62
2023/08/05 08:46:20;;;;;;;3.70;1.70;;;28.50;44.50;;;32.58;26.04;101341.44;5033918;28;20195;-64
2023/08/05 08:48:49;;;;;;;1.87;1.40;;;28.40;43.00;;;31.81;27.30;101338.59;5033781;28;20190;-62
2023/08/05 08:51:20;;;;;;;3.40;1.90;;;28.10;43.70;;;31.90;27.26;101336.78;5033788;28;20771;-62
2023/08/05 08:53:48;;;;;;;3.13;2.40;;;27.90;44.30;;;32.54;27.36;101329.53;5033273;28;20198;-61
2023/08/05 08:56:17;;;;;;;2.33;1.57;;;27.90;45.60;;;33.53;26.21;101329.31;5034295;28;20319;-65
2023/08/05 08:58:44;;;;;;;3.30;1.93;;;28.10;45.20;;;34.82;25.25;101330.53;5033523;28;20276;-64
2023/08/05 09:01:16;;;;;;;2.63;1.63;;;28.50;46.40;;;35.84;23.34;101322.13;5034159;28;20256;-64
2023/08/05 09:03:50;;;;;;;5.68;1.98;;;29.10;43.20;;;36.06;21.94;101320.28;5034024;28;20186;-63
2023/08/05 09:06:23;;;;;;;3.20;1.77;;;29.50;40.90;;;35.15;23.86;101304.28;5033901;28;20218;-63
2023/08/05 09:08:50;;;;;;;4.33;1.83;;;29.70;40.40;;;34.20;24.50;101299.88;5035788;28;20558;-61
2023/08/05 09:11:19;;;;;;;3.93;1.60;;;29.70;40.60;;;33.12;24.73;101300.31;5053751;28;20263;-63
2023/08/05 09:13:46;;;;;;;5.97;1.70;;;29.30;39.40;;;32.44;26.24;101299.72;5053506;28;20189;-63
2023/08/05 09:16:13;;;;;;;3.13;1.60;;;28.90;40.90;;;32.04;26.72;101304.94;5053454;28;20353;-63
2023/08/05 09:18:50;;;;;;;1.90;1.67;;;28.50;41.30;;;31.43;27.52;101315.34;5053200;28;20251;-63
2023/08/05 09:21:21;;;;;;;3.60;1.90;;;28.10;42.50;;;30.65;28.38;101310.56;5054956;28;20335;-63
2023/08/05 09:23:48;;;;;;;3.63;1.83;;;27.70;43.70;;;30.27;29.11;101308.06;5036693;28;20285;-61
2023/08/05 09:26:28;;;;;;;2.70;2.03;;;27.20;44.60;;;30.01;29.67;101311.13;5033844;28;20221;-63
2023/08/05 09:28:56;;;;;;;5.27;1.97;;;26.80;45.50;;;29.54;30.84;101321.09;5033090;28;20181;-63
2023/08/05 09:31:24;;;;;;;4.17;2.07;;;26.40;46.40;;;29.08;31.61;101310.63;5033533;28;20725;-64
2023/08/05 09:33:52;;;;;;;4.63;1.73;;;26.10;47.30;;;28.55;31.81;101314.22;5033187;28;20209;-63
2023/08/05 09:36:22;;;;;;;3.13;1.60;;;25.80;47.80;;;27.95;32.46;101299.00;5033500;28;20281;-62
2023/08/05 09:39:10;;;;;;;5.07;1.80;;;25.40;47.90;;;27.65;33.33;101289.06;5032533;28;20206;-62
2023/08/05 09:41:39;;;;;;;5.80;1.90;;;25.00;49.30;;;27.49;33.60;101287.47;5033476;28;20190;-63
2023/08/05 09:44:10;;;;;;;5.63;1.93;;;24.70;49.90;;;28.06;33.10;101284.38;5035036;28;20209;-62
2023/08/05 09:46:45;;;;;;;2.60;1.70;;;24.60;51.20;;;29.61;31.47;101283.56;5036863;28;20256;-63
2023/08/05 09:49:17;;;;;;;3.97;1.90;;;24.80;52.00;;;30.13;29.86;101269.94;5035665;28;20218;-63
2023/08/05 09:51:49;;;;;;;2.77;1.70;;;25.10;50.60;;;29.95;30.33;101262.59;5034897;28;20205;-63
2023/08/05 09:54:28;;;;;;;4.37;2.10;;;25.40;49.50;;;29.96;30.46;101264.19;5033246;28;20198;-63
2023/08/05 09:56:58;;;;;;;2.67;1.80;;;25.60;49.20;;;30.93;29.10;101267.22;5033269;28;20175;-63
2023/08/05 09:59:27;;;;;;;5.07;2.10;;;25.80;49.70;;;31.82;28.53;101263.13;5032718;28;20291;-63
2023/08/05 10:01:55;;;;;;;3.57;2.03;;;26.30;49.00;;;31.82;28.17;101263.13;5033302;28;20640;-63
2023/08/05 10:04:24;;;;;;;5.03;2.07;;;26.60;47.40;;;31.91;27.30;101264.03;5032270;28;20218;-63
2023/08/05 10:06:53;;;;;;;3.17;2.20;;;26.80;46.60;;;31.48;27.26;101260.00;5039257;28;20211;-62
2023/08/05 10:09:20;;;;;;;4.43;2.20;;;26.80;45.80;;;30.62;29.29;101261.38;5052679;28;20311;-63
2023/08/05 10:11:48;;;;;;;4.20;1.97;;;26.70;46.30;;;30.32;29.16;101254.47;5044823;28;20228;-63
2023/08/05 10:14:19;;;;;;;2.63;2.07;;;26.50;46.80;;;29.71;30.77;101253.59;5032955;28;20276;-62
2023/08/05 10:16:48;;;;;;;3.27;2.10;;;26.30;47.70;;;29.09;31.12;101255.28;5033298;28;20189;-63